Time;durP1;ratioP1;P1;durP2;ratioP2;P2;SDS_P1;SDS_P2;PMS_P1;PMS_P2;Temp;Humidity;BMP_temperature;BMP_pressure;BME280_temperature;BME280_humidity;BME280_pressure;Samples;Min_cycle;Max_cycle;Signal;HPM_P1;HPM_P2
2022/09/02 00:00:25;;;;;;;1.00;0.80;;;;;;;13.96;77.63;102301.34;5007967;28;20293;-71
2022/09/02 00:02:50;;;;;;;2.03;0.90;;;;;;;13.94;78.11;102294.38;5009906;28;20191;-71
2022/09/02 00:05:16;;;;;;;1.23;1.13;;;;;;;13.98;77.74;102298.78;5010385;28;20183;-71
2022/09/02 00:07:42;;;;;;;1.33;1.10;;;;;;;13.97;77.28;102297.03;5010692;28;20219;-72
2022/09/02 00:10:08;;;;;;;1.50;1.10;;;;;;;13.99;78.33;102301.41;5008320;28;20311;-71
2022/09/02 00:12:34;;;;;;;0.80;0.80;;;;;;;13.99;78.64;102300.56;5010502;28;20219;-71
2022/09/02 00:15:00;;;;;;;1.30;0.90;;;;;;;14.02;77.72;102296.34;5005956;28;20199;-72
2022/09/02 00:17:25;;;;;;;0.93;0.77;;;;;;;14.02;78.42;102295.47;5012007;28;20217;-71
2022/09/02 00:19:53;;;;;;;1.57;0.90;;;;;;;14.01;77.79;102292.03;5009174;28;20633;-71
2022/09/02 00:22:18;;;;;;;1.30;0.90;;;;;;;14.05;77.84;102288.69;5005189;28;20198;-71
2022/09/02 00:24:44;;;;;;;1.03;0.83;;;;;;;14.01;78.35;102284.31;5010511;28;20187;-72
2022/09/02 00:27:09;;;;;;;0.80;0.80;;;;;;;14.06;78.25;102287.00;5008596;28;20207;-72
2022/09/02 00:29:35;;;;;;;1.40;1.00;;;;;;;14.08;78.56;102290.53;5008477;28;20194;-71
2022/09/02 00:32:00;;;;;;;1.73;1.10;;;;;;;14.08;77.95;102293.09;5004425;28;20302;-71
2022/09/02 00:34:26;;;;;;;3.33;1.20;;;;;;;14.09;78.14;102280.22;5004200;28;20192;-71
2022/09/02 00:36:51;;;;;;;4.33;1.10;;;;;;;14.11;78.47;102288.91;5007742;28;20253;-71
2022/09/02 00:39:17;;;;;;;1.27;1.00;;;;;;;14.09;78.60;102281.94;5004297;28;20711;-71
2022/09/02 00:41:43;;;;;;;1.13;0.87;;;;;;;14.05;78.44;102287.84;5010484;28;20183;-71
2022/09/02 00:44:13;;;;;;;1.23;0.90;;;;;;;14.05;78.79;102286.13;5008956;28;20179;-71
2022/09/02 00:46:39;;;;;;;0.87;0.83;;;;;;;14.03;78.23;102286.91;5010610;28;20704;-71
2022/09/02 00:49:23;;;;;;;2.73;1.07;;;;;;;14.03;78.47;102286.91;5008850;28;20230;-72
2022/09/02 00:52:06;;;;;;;1.73;0.80;;;;;;;14.00;78.27;102289.41;5006197;28;20227;-71
2022/09/02 00:54:35;;;;;;;0.90;0.70;;;;;;;13.95;78.63;102291.00;5006715;28;20538;-71
2022/09/02 00:57:06;;;;;;;1.00;0.90;;;;;;;13.94;78.51;102284.94;5008529;28;20199;-71
2022/09/02 00:59:43;;;;;;;1.00;0.90;;;;;;;13.96;78.47;102288.47;5010869;28;20187;-71
2022/09/02 01:02:10;;;;;;;1.90;0.90;;;;;;;13.96;78.64;102290.16;5006435;28;20195;-72
2022/09/02 01:04:35;;;;;;;2.57;1.30;;;;;;;13.89;79.10;102289.09;5008564;28;20665;-71
2022/09/02 01:07:02;;;;;;;2.60;1.10;;;;;;;13.86;79.21;102289.00;5005928;28;20210;-71
2022/09/02 01:09:27;;;;;;;2.47;1.10;;;;;;;13.88;79.39;102282.22;5000811;28;20274;-71
2022/09/02 01:11:54;;;;;;;2.40;1.00;;;;;;;13.88;79.81;102281.31;5003101;28;20812;-71
2022/09/02 01:14:21;;;;;;;1.93;1.20;;;;;;;13.88;79.87;102278.75;5009517;28;20180;-71
2022/09/02 01:16:55;;;;;;;1.23;1.03;;;;;;;13.90;79.06;102275.38;5008654;28;20210;-71
2022/09/02 01:19:32;;;;;;;2.17;1.00;;;;;;;13.90;79.74;102279.69;5007718;28;20190;-71
2022/09/02 01:21:57;;;;;;;2.73;1.10;;;;;;;13.82;80.31;102274.31;5004581;28;20179;-71
2022/09/02 01:24:27;;;;;;;1.20;0.80;;;;;;;13.87;80.25;102280.47;5006694;28;20272;-71
2022/09/02 01:26:55;;;;;;;0.93;0.90;;;;;;;13.90;80.55;102283.13;5005964;28;20214;-71
2022/09/02 01:29:22;;;;;;;1.90;1.17;;;;;;;13.85;80.09;102276.09;5002643;28;20223;-71
2022/09/02 01:31:48;;;;;;;1.43;0.83;;;;;;;13.88;80.30;102274.50;5004412;28;20219;-71
2022/09/02 01:34:14;;;;;;;1.47;1.00;;;;;;;13.85;80.00;102274.38;5005182;28;20179;-71
2022/09/02 01:36:42;;;;;;;1.63;1.00;;;;;;;13.86;79.94;102268.41;5006970;28;20689;-71
2022/09/02 01:39:10;;;;;;;2.10;0.83;;;;;;;13.82;79.97;102261.44;5001612;28;20259;-71
2022/09/02 01:41:36;;;;;;;1.50;0.90;;;;;;;13.80;80.07;102269.91;5006312;28;20191;-71
2022/09/02 01:44:02;;;;;;;1.80;1.00;;;;;;;13.77;80.52;102270.72;5001483;28;20195;-71
2022/09/02 01:46:28;;;;;;;1.30;1.20;;;;;;;13.77;80.67;102273.28;4994223;28;20202;-71
2022/09/02 01:48:53;;;;;;;2.07;1.00;;;;;;;13.74;80.31;102274.91;5002640;28;20586;-71
2022/09/02 01:51:19;;;;;;;1.20;0.90;;;;;;;13.72;80.81;102267.13;5004256;28;20191;-71
2022/09/02 01:53:47;;;;;;;1.50;1.37;;;;;;;13.72;81.54;102271.44;5007044;28;20655;-71
2022/09/02 01:56:13;;;;;;;2.00;1.20;;;;;;;13.72;81.17;102271.44;5009318;28;20195;-71
2022/09/02 01:58:39;;;;;;;2.23;1.33;;;;;;;13.72;81.70;102261.13;5005841;28;20179;-71
2022/09/02 02:01:06;;;;;;;2.47;1.30;;;;;;;13.68;81.63;102259.28;5003508;28;20183;-71
2022/09/02 02:03:36;;;;;;;1.17;0.90;;;;;;;13.60;81.57;102265.91;4996989;28;20568;-71
2022/09/02 02:06:08;;;;;;;1.33;1.10;;;;;;;13.54;82.01;102263.16;5009772;28;20210;-71
2022/09/02 02:08:35;;;;;;;2.20;1.03;;;;;;;13.54;81.97;102265.72;5007425;28;20304;-71
2022/09/02 02:11:01;;;;;;;1.43;1.20;;;;;;;13.51;81.36;102257.91;4999945;28;20245;-71
2022/09/02 02:13:28;;;;;;;1.10;0.90;;;;;;;13.44;81.32;102256.84;5006861;28;20203;-71
2022/09/02 02:15:54;;;;;;;1.40;0.90;;;;;;;13.39;81.44;102255.81;5002179;28;20270;-71
2022/09/02 02:18:19;;;;;;;1.10;1.00;;;;;;;13.31;81.37;102254.72;5002139;28;20382;-71
2022/09/02 02:20:45;;;;;;;1.40;1.10;;;;;;;13.28;81.53;102257.22;5001544;28;20198;-71
2022/09/02 02:23:10;;;;;;;2.00;1.30;;;;;;;13.24;81.94;102257.03;5006448;28;20195;-71
2022/09/02 02:25:36;;;;;;;2.20;1.07;;;;;;;13.20;82.03;102257.78;5003167;28;20275;-71
2022/09/02 02:28:02;;;;;;;3.37;1.23;;;;;;;13.17;81.56;102247.41;4997174;28;20282;-71
2022/09/02 02:30:28;;;;;;;1.73;1.10;;;;;;;13.14;81.77;102245.63;5005163;28;20183;-71
2022/09/02 02:32:54;;;;;;;1.83;1.10;;;;;;;13.09;82.36;102248.84;5003677;28;20253;-71
2022/09/02 02:35:20;;;;;;;1.00;0.90;;;;;;;13.07;82.03;102245.38;5006511;28;20190;-71
2022/09/02 02:37:49;;;;;;;1.27;1.17;;;;;;;13.08;82.88;102247.97;5015436;28;20286;-71
2022/09/02 02:40:21;;;;;;;2.10;1.30;;;;;;;13.08;83.01;102247.97;5006723;28;20183;-71
2022/09/02 02:42:48;;;;;;;0.97;0.93;;;;;;;13.09;82.93;102249.75;4991522;28;20236;-71
2022/09/02 02:45:14;;;;;;;1.57;1.40;;;;;;;13.12;83.33;102246.41;5007699;28;20186;-71
2022/09/02 02:47:41;;;;;;;1.40;1.10;;;;;;;13.13;82.95;102240.41;4999125;28;20211;-71
2022/09/02 02:50:11;;;;;;;1.97;1.20;;;;;;;13.09;83.17;102241.16;5004828;28;20187;-71
2022/09/02 02:52:39;;;;;;;2.17;1.10;;;;;;;13.06;82.90;102244.50;5010060;28;20322;-71
2022/09/02 02:55:06;;;;;;;1.97;1.20;;;;;;;13.02;82.83;102242.66;5005508;28;20194;-71
2022/09/02 02:57:33;;;;;;;1.53;1.03;;;;;;;13.01;82.93;102243.47;5003553;28;20761;-71
2022/09/02 03:00:09;;;;;;;2.43;1.13;;;;;;;12.98;83.11;102243.38;5000750;28;20187;-71
2022/09/02 03:02:34;;;;;;;2.67;1.10;;;;;;;12.94;83.34;102239.81;5007436;28;20179;-71
2022/09/02 03:05:00;;;;;;;2.27;1.23;;;;;;;12.94;83.55;102236.34;5005336;28;20758;-70
2022/09/02 03:07:27;;;;;;;1.97;1.20;;;;;;;12.97;83.40;102239.06;5005652;28;20246;-70
2022/09/02 03:09:52;;;;;;;1.43;1.27;;;;;;;13.00;83.56;102233.13;5001595;28;20747;-70
2022/09/02 03:12:18;;;;;;;1.50;1.20;;;;;;;12.98;84.09;102229.66;5006411;28;20386;-71
2022/09/02 03:14:44;;;;;;;1.83;1.50;;;;;;;12.95;83.90;102236.41;5001690;28;20210;-71
2022/09/02 03:17:10;;;;;;;2.23;1.43;;;;;;;12.93;84.34;102226.03;5006126;28;20198;-70
2022/09/02 03:19:35;;;;;;;2.00;1.30;;;;;;;12.93;84.38;102233.75;5002476;28;20277;-71
2022/09/02 03:22:02;;;;;;;3.13;1.50;;;;;;;12.93;84.52;102223.47;4987242;28;20216;-71
2022/09/02 03:24:29;;;;;;;2.37;1.30;;;;;;;12.91;84.37;102228.56;5003756;28;20668;-71
2022/09/02 03:26:55;;;;;;;1.97;1.40;;;;;;;12.88;84.04;102224.19;5004033;28;20207;-71
2022/09/02 03:29:21;;;;;;;1.80;1.27;;;;;;;12.83;84.24;102224.84;5002959;28;20676;-71
2022/09/02 03:31:46;;;;;;;2.13;1.53;;;;;;;12.86;84.91;102224.97;5006331;28;20183;-71
2022/09/02 03:34:12;;;;;;;2.13;1.60;;;;;;;12.83;84.36;102224.84;5001514;28;20765;-71
2022/09/02 03:36:39;;;;;;;2.83;1.30;;;;;;;12.79;84.38;102223.00;5001699;28;20215;-71
2022/09/02 03:39:08;;;;;;;1.50;1.17;;;;;;;12.76;84.58;102218.63;5019445;28;20184;-70
2022/09/02 03:41:34;;;;;;;8.23;1.83;;;;;;;12.71;84.83;102227.91;5004335;28;20187;-71
2022/09/02 03:44:00;;;;;;;1.67;1.40;;;;;;;12.70;84.57;102231.31;5006862;28;20990;-71
2022/09/02 03:46:28;;;;;;;3.00;1.40;;;;;;;12.66;84.47;102234.59;5001453;28;20223;-71
2022/09/02 03:48:54;;;;;;;1.73;1.30;;;;;;;12.64;84.74;102225.97;5001573;28;20187;-71
2022/09/02 03:51:22;;;;;;;1.57;1.10;;;;;;;12.67;85.50;102220.91;5006218;28;20190;-71
2022/09/02 03:53:48;;;;;;;3.23;1.43;;;;;;;12.72;85.08;102221.94;5004185;28;20239;-71
2022/09/02 03:56:15;;;;;;;1.43;1.30;;;;;;;12.68;84.41;102224.34;5002332;28;20871;-71
2022/09/02 03:58:44;;;;;;;2.60;1.20;;;;;;;12.67;84.36;102218.34;5006537;28;20185;-71
2022/09/02 04:01:15;;;;;;;4.00;1.40;;;;;;;12.63;84.63;102224.19;5004725;28;20198;-71
2022/09/02 04:03:42;;;;;;;1.60;1.30;;;;;;;12.61;84.16;102223.28;5001346;28;20211;-71
2022/09/02 04:06:11;;;;;;;1.57;1.40;;;;;;;12.61;84.51;102219.81;5006746;28;20842;-71
2022/09/02 04:08:39;;;;;;;2.07;1.20;;;;;;;12.62;84.47;102221.56;5004345;28;20195;-71
2022/09/02 04:11:09;;;;;;;5.47;1.60;;;;;;;12.58;84.36;102214.59;5003885;28;20187;-71
2022/09/02 04:13:35;;;;;;;2.83;1.30;;;;;;;12.54;84.47;102221.31;5004601;28;20226;-71
2022/09/02 04:16:07;;;;;;;2.33;1.23;;;;;;;12.50;85.00;102221.19;5002772;28;20187;-71
2022/09/02 04:18:32;;;;;;;2.60;1.50;;;;;;;12.48;84.86;102220.22;5005310;28;20210;-71
2022/09/02 04:20:59;;;;;;;2.33;1.47;;;;;;;12.43;85.34;102217.53;5006883;28;20194;-71
2022/09/02 04:23:27;;;;;;;1.87;1.50;;;;;;;12.43;85.19;102216.63;5006668;28;20241;-71
2022/09/02 04:25:53;;;;;;;1.43;1.33;;;;;;;12.49;85.41;102216.88;5008719;28;20182;-71
2022/09/02 04:28:19;;;;;;;3.13;1.60;;;;;;;12.44;85.21;102218.41;5006857;28;20207;-71
2022/09/02 04:30:47;;;;;;;3.57;1.60;;;;;;;12.43;84.91;102219.22;5002619;28;20234;-70
2022/09/02 04:33:13;;;;;;;1.57;1.30;;;;;;;12.45;85.20;102215.88;5006486;28;20301;-71
2022/09/02 04:35:44;;;;;;;2.10;1.53;;;;;;;12.45;84.88;102222.72;5011482;28;20266;-70
2022/09/02 04:38:11;;;;;;;2.50;1.47;;;;;;;12.44;84.71;102221.84;5005862;28;20208;-70
2022/09/02 04:40:41;;;;;;;1.30;1.20;;;;;;;12.42;84.88;102220.91;5011607;28;20183;-71
2022/09/02 04:43:07;;;;;;;2.60;1.53;;;;;;;12.40;84.90;102221.69;5005137;28;20238;-71
2022/09/02 04:45:33;;;;;;;1.77;1.20;;;;;;;12.41;85.02;102226.88;5001986;28;20221;-71
2022/09/02 04:48:00;;;;;;;2.07;1.30;;;;;;;12.42;84.57;102226.06;5007841;28;20684;-71
2022/09/02 04:50:25;;;;;;;1.87;1.50;;;;;;;12.42;84.35;102228.63;5006666;28;20269;-70
2022/09/02 04:52:58;;;;;;;1.97;1.17;;;;;;;12.40;84.78;102225.13;5002229;28;20289;-71
2022/09/02 04:55:24;;;;;;;2.03;1.50;;;;;;;12.39;84.96;102227.66;5008073;28;20270;-71
2022/09/02 04:57:50;;;;;;;2.13;1.63;;;;;;;12.39;84.95;102232.81;5010636;28;20211;-71
2022/09/02 05:00:17;;;;;;;2.33;1.40;;;;;;;12.39;85.28;102235.38;5005121;28;20191;-71
2022/09/02 05:02:43;;;;;;;1.63;1.30;;;;;;;12.46;85.31;102240.75;5003415;28;20244;-71
2022/09/02 05:05:09;;;;;;;3.10;1.70;;;;;;;12.48;85.38;102246.81;5009702;28;20187;-71
2022/09/02 05:07:38;;;;;;;1.57;1.47;;;;;;;12.52;85.27;102235.81;5006057;28;20576;-71
2022/09/02 05:10:05;;;;;;;3.90;1.60;;;;;;;12.53;85.36;102235.00;5001126;28;20183;-71
2022/09/02 05:12:34;;;;;;;2.23;1.30;;;;;;;12.56;85.41;102237.69;5006770;28;20211;-70
2022/09/02 05:15:01;;;;;;;4.50;1.53;;;;;;;12.62;84.89;102243.00;5010638;28;20187;-71
2022/09/02 05:17:31;;;;;;;2.20;1.50;;;;;;;12.65;85.14;102232.84;5008451;28;20627;-71
2022/09/02 05:19:58;;;;;;;2.43;1.60;;;;;;;12.73;84.56;102241.66;4993458;28;20523;-71
2022/09/02 05:22:24;;;;;;;1.93;1.40;;;;;;;12.87;84.49;102231.84;5007744;28;20188;-71
2022/09/02 05:24:54;;;;;;;1.40;1.30;;;;;;;12.94;83.85;102229.50;5001760;28;20662;-70
2022/09/02 05:27:19;;;;;;;2.27;1.27;;;;;;;13.06;83.51;102230.75;5002811;28;20207;-71
2022/09/02 05:29:46;;;;;;;2.33;1.50;;;;;;;13.12;83.54;102228.41;4991763;28;20351;-71
2022/09/02 05:32:14;;;;;;;1.77;1.20;;;;;;;13.22;82.72;102236.41;5010172;28;20289;-71
2022/09/02 05:34:42;;;;;;;4.23;1.37;;;;;;;13.35;82.48;102238.53;5005261;28;20203;-71
2022/09/02 05:37:08;;;;;;;2.53;1.70;;;;;;;13.48;82.37;102237.25;5000218;28;20211;-71
2022/09/02 05:39:35;;;;;;;2.60;1.30;;;;;;;13.64;81.69;102239.44;5006047;28;20217;-71
2022/09/02 05:42:03;;;;;;;2.70;1.30;;;;;;;13.74;80.54;102241.44;5009024;28;20187;-71
2022/09/02 05:44:30;;;;;;;1.57;1.33;;;;;;;13.84;79.71;102236.59;5005921;28;20662;-71
2022/09/02 05:46:56;;;;;;;1.80;1.10;;;;;;;13.94;80.18;102232.56;4998457;28;20345;-71
2022/09/02 05:49:22;;;;;;;3.03;1.50;;;;;;;14.02;79.05;102239.69;4994027;28;20872;-71
2022/09/02 05:51:56;;;;;;;1.77;1.17;;;;;;;14.12;79.04;102228.81;5005916;28;20191;-71
2022/09/02 05:54:31;;;;;;;3.10;1.60;;;;;;;14.23;78.88;102231.72;5004025;28;20191;-71
2022/09/02 05:57:08;;;;;;;1.53;1.30;;;;;;;14.36;78.48;102223.47;5007527;28;20210;-71
2022/09/02 05:59:38;;;;;;;2.03;1.50;;;;;;;14.46;77.66;102231.47;4988645;28;20187;-72
2022/09/02 06:02:05;;;;;;;2.27;1.27;;;;;;;14.64;76.52;102231.09;5003069;28;20197;-71
2022/09/02 06:04:31;;;;;;;2.53;1.23;;;;;;;14.71;76.08;102222.66;5005911;28;20191;-71
2022/09/02 06:06:58;;;;;;;2.20;1.33;;;;;;;14.82;75.53;102223.81;5007204;28;20306;-71
2022/09/02 06:09:24;;;;;;;1.60;1.40;;;;;;;14.92;75.11;102220.59;5009040;28;20183;-71
2022/09/02 06:11:50;;;;;;;1.27;1.10;;;;;;;15.07;74.92;102226.13;5005750;28;20269;-71
2022/09/02 06:14:23;;;;;;;1.70;1.47;;;;;;;15.14;74.66;102221.13;5008792;28;20226;-71
2022/09/02 06:16:53;;;;;;;2.80;1.10;;;;;;;15.23;74.21;102223.91;5002942;28;20208;-71
2022/09/02 06:19:29;;;;;;;2.13;1.40;;;;;;;15.30;73.02;102223.25;5003619;28;20654;-71
2022/09/02 06:21:56;;;;;;;2.40;1.30;;;;;;;15.52;72.77;102219.44;5004205;28;20226;-71
2022/09/02 06:24:24;;;;;;;2.17;1.40;;;;;;;15.59;72.48;102219.59;4995229;28;20227;-71
2022/09/02 06:26:52;;;;;;;2.40;1.30;;;;;;;15.64;72.33;102219.69;5001822;28;20206;-71
2022/09/02 06:29:19;;;;;;;3.13;1.30;;;;;;;15.81;71.44;102218.31;5005184;28;20662;-71
2022/09/02 06:31:47;;;;;;;2.60;1.20;;;;;;;15.98;70.60;102209.22;5003612;28;20191;-72
2022/09/02 06:34:16;;;;;;;2.47;1.07;;;;;;;16.06;69.95;102211.09;5005074;28;20195;-71
2022/09/02 06:36:45;;;;;;;2.87;0.93;;;;;;;16.20;69.83;102217.38;4998372;28;20289;-71
2022/09/02 06:39:14;;;;;;;2.70;1.30;;;;;;;16.29;69.22;102214.97;5007277;28;20192;-72
2022/09/02 06:41:42;;;;;;;2.07;1.50;;;;;;;16.38;68.66;102219.41;5004644;28;20213;-70
2022/09/02 06:44:10;;;;;;;2.43;1.13;;;;;;;16.54;68.32;102221.50;5007359;28;20190;-70
2022/09/02 06:46:41;;;;;;;1.63;1.20;;;;;;;16.59;67.78;102218.16;5005582;28;20237;-71
2022/09/02 06:49:10;;;;;;;1.47;1.37;;;;;;;16.70;66.65;102211.41;5007305;28;20210;-71
2022/09/02 06:51:40;;;;;;;1.27;1.10;;;;;;;16.91;66.23;102216.06;5006617;28;20321;-70
2022/09/02 06:54:08;;;;;;;1.57;1.33;;;;;;;16.95;66.21;102204.91;5007514;28;20662;-70
2022/09/02 06:56:36;;;;;;;1.87;1.50;;;;;;;17.17;65.96;102201.81;5004794;28;20768;-71
2022/09/02 06:59:03;;;;;;;1.93;1.30;;;;;;;17.27;65.24;102203.69;5004920;28;20671;-71
2022/09/02 07:01:42;;;;;;;1.37;1.20;;;;;;;17.44;64.40;102203.09;5007399;28;20186;-71
2022/09/02 07:06:54;;;;;;;2.50;1.37;;;;;;;17.71;63.62;102194.78;5004563;28;20305;-71
2022/09/02 07:09:29;;;;;;;1.87;1.17;;;;;;;17.95;63.51;102195.06;4999590;28;20191;-71
2022/09/02 07:11:58;;;;;;;2.10;1.20;;;;;;;17.98;63.15;102195.97;4988486;28;20205;-71
2022/09/02 07:14:26;;;;;;;1.57;1.10;;;;;;;18.11;61.94;102203.03;4985195;28;20253;-71
2022/09/02 07:16:56;;;;;;;2.63;1.10;;;;;;;18.25;61.68;102203.16;5002256;28;20729;-71
2022/09/02 07:19:24;;;;;;;1.70;0.90;;;;;;;18.42;60.88;102191.28;4988076;28;20191;-71
2022/09/02 07:21:50;;;;;;;0.70;0.70;;;;;;;18.62;61.21;102194.91;5000770;28;20187;-71
2022/09/02 07:24:16;;;;;;;4.07;1.00;;;;;;;18.80;60.16;102198.50;5005377;28;20193;-71
2022/09/02 07:26:43;;;;;;;1.83;1.20;;;;;;;18.91;59.08;102198.59;5005952;28;20204;-72
2022/09/02 07:29:08;;;;;;;1.43;0.90;;;;;;;18.96;58.75;102187.38;5004649;28;20189;-71
2022/09/02 07:31:40;;;;;;;2.40;1.27;;;;;;;19.14;58.25;102190.09;5003118;28;20187;-71
2022/09/02 07:34:08;;;;;;;1.80;1.00;;;;;;;19.30;57.89;102191.09;5000508;28;20254;-71
2022/09/02 07:36:36;;;;;;;4.27;1.27;;;;;;;19.32;57.00;102189.34;5006749;28;20214;-71
2022/09/02 07:39:04;;;;;;;1.10;0.80;;;;;;;19.45;56.45;102189.44;4997281;28;20216;-70
2022/09/02 07:41:31;;;;;;;3.27;1.00;;;;;;;19.74;56.31;102179.16;5004954;28;20191;-71
2022/09/02 07:43:57;;;;;;;1.30;0.90;;;;;;;19.86;55.54;102182.66;4999400;28;20685;-71
2022/09/02 07:46:23;;;;;;;2.33;1.10;;;;;;;19.96;55.20;102176.63;5002953;28;20188;-71
2022/09/02 07:48:49;;;;;;;1.13;0.97;;;;;;;20.11;55.06;102178.41;5000625;28;20572;-71
2022/09/02 07:51:17;;;;;;;1.20;1.10;;;;;;;20.08;53.88;102179.28;5004663;28;20190;-71
2022/09/02 07:53:43;;;;;;;2.90;1.40;;;;;;;20.18;54.57;102173.22;5007136;28;20302;-71
2022/09/02 07:56:12;;;;;;;2.60;1.00;;;;;;;20.52;53.16;102169.81;5008840;28;20182;-71
2022/09/02 07:58:40;;;;;;;1.83;0.90;;;;;;;20.82;52.56;102161.09;5006560;28;20215;-71
2022/09/02 08:01:05;;;;;;;2.30;1.07;;;;;;;20.98;52.81;102178.47;5020614;28;20215;-71
2022/09/02 08:03:32;;;;;;;1.60;1.07;;;;;;;21.12;51.48;102171.47;5005733;28;20654;-72
2022/09/02 08:05:58;;;;;;;1.53;0.80;;;;;;;21.13;51.55;102168.00;5012064;28;20187;-71
2022/09/02 08:08:26;;;;;;;1.93;0.83;;;;;;;21.14;51.46;102173.22;5007718;28;20226;-71
2022/09/02 08:10:53;;;;;;;1.20;0.80;;;;;;;21.27;50.05;102169.72;5003282;28;20257;-71
2022/09/02 08:13:20;;;;;;;0.83;0.70;;;;;;;21.33;50.29;102174.03;5003871;28;20346;-71
2022/09/02 08:15:46;;;;;;;2.70;0.80;;;;;;;21.75;49.71;102163.47;5005196;28;20213;-71
2022/09/02 08:18:11;;;;;;;2.57;0.63;;;;;;;21.96;49.15;102158.13;5001984;28;20223;-71
2022/09/02 08:20:37;;;;;;;1.47;0.80;;;;;;;22.00;49.06;102152.00;4989070;28;20191;-71
2022/09/02 08:23:05;;;;;;;1.27;0.90;;;;;;;22.03;48.45;102162.44;5004998;28;20191;-72
2022/09/02 08:25:34;;;;;;;3.50;1.03;;;;;;;22.29;48.08;102156.16;5006167;28;20199;-71
2022/09/02 08:28:00;;;;;;;0.83;0.77;;;;;;;22.41;47.81;102155.19;4999624;28;20261;-71
2022/09/02 08:30:26;;;;;;;2.97;0.90;;;;;;;22.49;47.09;102155.16;5006512;28;20187;-71
2022/09/02 08:32:52;;;;;;;1.63;0.70;;;;;;;22.75;46.70;102155.81;5000361;28;20210;-71
2022/09/02 08:35:17;;;;;;;1.50;0.93;;;;;;;22.07;47.12;102151.94;5011219;28;20195;-71
2022/09/02 08:37:43;;;;;;;2.93;0.70;;;;;;;22.71;47.57;102152.38;5005522;28;20264;-71
2022/09/02 08:40:18;;;;;;;0.97;0.73;;;;;;;23.22;46.78;102154.47;5012236;28;20186;-71
2022/09/02 08:42:47;;;;;;;2.30;0.97;;;;;;;22.84;46.55;102153.09;5009775;28;20197;-71
2022/09/02 08:45:24;;;;;;;1.93;1.00;;;;;;;23.48;46.79;102147.16;5009444;28;20235;-74
2022/09/02 08:48:20;;;;;;;1.80;1.10;;;;;;;23.40;44.65;102145.53;5005893;28;20529;-72
2022/09/02 08:50:49;;;;;;;3.80;1.13;;;;;;;23.01;44.95;102152.03;5007190;28;20218;-72
2022/09/02 08:53:47;;;;;;;2.73;0.90;;;;;;;23.02;45.43;102156.38;5011151;28;20199;-72
2022/09/02 08:56:16;;;;;;;1.80;0.83;;;;;;;23.06;45.73;102165.09;4993112;28;20722;-71
2022/09/02 08:58:45;;;;;;;1.97;1.00;;;;;;;23.05;44.96;102156.34;5006851;28;20646;-72
2022/09/02 09:01:43;;;;;;;1.87;0.80;;;;;;;22.85;45.50;102147.00;5004506;28;20908;-71
2022/09/02 09:04:16;;;;;;;3.00;1.10;;;;;;;23.18;44.87;102139.66;4999806;28;20222;-72
2022/09/02 09:06:52;;;;;;;2.87;1.03;;;;;;;23.53;43.96;102142.72;5007396;28;20758;-72
2022/09/02 09:09:25;;;;;;;11.57;1.40;;;;;;;23.25;44.27;102146.56;5010536;28;20191;-73
2022/09/02 09:12:05;;;;;;;2.83;1.20;;;;;;;24.06;43.87;102129.81;5008681;28;20569;-72
2022/09/02 09:14:46;;;;;;;4.03;1.03;;;;;;;24.46;43.53;102133.53;5004866;28;20202;-72
2022/09/02 09:17:21;;;;;;;0.80;0.80;;;;;;;24.54;42.17;102126.38;5008064;28;20222;-72
2022/09/02 09:19:55;;;;;;;0.85;0.82;;;;;;;24.88;42.42;102127.56;5004758;28;20712;-72
2022/09/02 09:22:28;;;;;;;2.25;1.00;;;;;;;24.94;41.31;102121.31;5005974;28;20318;-73
2022/09/02 09:24:55;;;;;;;6.93;1.50;;;;;;;24.92;40.71;102123.97;5008435;28;20402;-72
2022/09/02 09:27:22;;;;;;;1.30;1.05;;;;;;;25.66;40.64;102114.59;5004250;28;20697;-74
2022/09/02 09:29:49;;;;;;;4.00;1.10;;;;;;;26.03;39.55;102111.13;5007977;28;20183;-73
2022/09/02 09:32:28;;;;;;;3.00;1.00;;;;;;;28.87;35.17;102095.53;5008628;28;20222;-73
2022/09/02 09:35:01;;;;;;;1.20;1.10;;;;;;;32.66;29.17;102087.53;5007551;28;20776;-74
2022/09/02 09:37:36;;;;;;;2.00;1.05;;;;;;;32.89;27.96;102091.66;5005655;28;20256;-72
2022/09/02 09:40:20;;;;;;;1.55;1.20;;;;;;;32.24;28.63;102086.19;5006225;28;20187;-72
2022/09/02 09:43:04;;;;;;;2.15;1.30;;;;;;;32.70;28.00;102089.09;5009831;28;20178;-73
2022/09/02 09:45:55;;;;;;;1.92;1.30;;;;;;;31.56;29.30;102089.53;5007064;28;20188;-73
2022/09/02 09:48:32;;;;;;;1.48;1.10;;;;;;;29.63;32.22;102090.94;5000646;28;20222;-73
2022/09/02 09:50:57;;;;;;;1.00;1.00;;;;;;;29.08;31.91;102093.94;5003521;28;20681;-72
2022/09/02 09:53:33;;;;;;;2.20;1.00;;;;;;;28.71;34.17;102093.50;5008587;28;20238;-73
2022/09/02 09:56:20;;;;;;;1.13;0.95;;;;;;;28.06;34.63;102098.38;5008449;28;20218;-71
2022/09/02 09:58:47;;;;;;;2.15;0.90;;;;;;;27.88;35.20;102087.53;5004921;28;20206;-72
2022/09/02 10:01:31;;;;;;;4.30;1.30;;;;;;;27.16;35.71;102089.69;5005075;28;20193;-71
2022/09/02 10:04:23;;;;;;;3.45;1.02;;;;;;;26.75;36.94;102087.41;5005450;28;20691;-71
2022/09/02 10:06:49;;;;;;;1.23;0.90;;;;;;;26.73;36.81;102084.81;4999815;28;20219;-71
2022/09/02 10:09:17;;;;;;;2.70;1.00;;;;;;;27.44;36.56;102075.72;5006781;28;20198;-72
2022/09/02 10:11:57;;;;;;;3.47;1.10;;;;;;;27.56;37.00;102066.59;5008874;28;20207;-72
2022/09/02 10:14:23;;;;;;;1.20;0.93;;;;;;;27.26;36.09;102060.47;5006298;28;20605;-73
2022/09/02 10:17:05;;;;;;;5.18;1.00;;;;;;;27.21;36.50;102069.44;5009574;28;20269;-72
2022/09/02 10:20:08;;;;;;;1.20;1.10;;;;;;;27.15;36.44;102065.19;5008638;28;20230;-73
2022/09/02 10:23:11;;;;;;;2.03;0.80;;;;;;;27.21;36.03;102056.28;5001352;28;20282;-72
2022/09/02 10:26:06;;;;;;;2.80;0.90;;;;;;;27.15;35.40;102054.66;5010665;28;20194;-72
2022/09/02 10:28:50;;;;;;;4.30;1.17;;;;;;;27.59;35.95;102050.72;5008958;28;20214;-72
2022/09/02 10:31:32;;;;;;;2.78;1.00;;;;;;;27.55;35.30;102052.59;5025498;28;20187;-73
2022/09/02 10:34:31;;;;;;;2.25;1.00;;;;;;;27.51;36.43;102061.47;5008106;28;20678;-73
2022/09/02 10:37:20;;;;;;;4.65;0.93;;;;;;;27.61;35.02;102046.25;5004156;28;20223;-73
2022/09/02 10:40:03;;;;;;;1.40;1.00;;;;;;;28.32;34.40;102026.34;5006170;28;20195;-73
2022/09/02 10:42:32;;;;;;;1.35;0.93;;;;;;;28.05;34.31;102037.81;5007303;28;20264;-73
2022/09/02 10:45:18;;;;;;;1.52;1.00;;;;;;;27.82;33.84;102029.81;4994832;28;20191;-73
2022/09/02 10:48:11;;;;;;;1.13;0.88;;;;;;;26.77;35.97;102033.00;4999958;28;20222;-72
2022/09/02 10:50:57;;;;;;;2.35;0.75;;;;;;;27.72;34.82;102026.56;4983304;28;20265;-73
2022/09/02 10:53:26;;;;;;;0.85;0.75;;;;;;;26.87;35.14;102030.06;4994292;28;20243;-72
2022/09/02 10:55:59;;;;;;;2.42;0.80;;;;;;;27.36;34.16;102025.06;5006889;28;20200;-73
2022/09/02 10:58:47;;;;;;;1.38;0.80;;;;;;;28.08;34.62;102027.16;4997846;28;20207;-73
2022/09/02 11:01:33;;;;;;;1.98;0.85;;;;;;;28.11;34.44;102013.88;5001745;28;20232;-73
2022/09/02 11:04:11;;;;;;;3.65;0.80;;;;;;;27.78;34.64;102020.25;5005954;28;20194;-73
2022/09/02 11:06:40;;;;;;;2.15;0.95;;;;;;;28.48;34.47;102011.72;5004016;28;20886;-73
2022/09/02 11:09:20;;;;;;;2.08;0.73;;;;;;;28.08;32.92;102011.34;5001093;28;20239;-73
2022/09/02 11:11:54;;;;;;;1.60;0.85;;;;;;;28.44;33.40;102013.59;5000189;28;20194;-72
2022/09/02 11:14:31;;;;;;;4.00;1.10;;;;;;;27.93;33.37;102002.19;5004233;28;20253;-73
2022/09/02 11:17:29;;;;;;;1.10;0.90;;;;;;;28.04;33.95;102012.38;4999529;28;20233;-72
2022/09/02 11:19:59;;;;;;;1.27;0.85;;;;;;;27.24;34.15;102014.94;4995906;28;20196;-73
2022/09/02 11:23:02;;;;;;;2.10;0.88;;;;;;;28.44;33.40;102007.47;5003004;28;20537;-73
2022/09/02 11:25:43;;;;;;;2.33;0.90;;;;;;;28.25;33.61;101998.44;5000543;28;20193;-73
2022/09/02 11:28:44;;;;;;;1.67;1.00;;;;;;;27.51;33.82;102000.06;4999111;28;20290;-73
2022/09/02 11:31:32;;;;;;;1.55;0.95;;;;;;;28.58;32.02;101990.25;5006789;28;20859;-72
2022/09/02 11:34:18;;;;;;;1.10;0.90;;;;;;;28.38;32.50;101983.94;4998395;28;20214;-73
2022/09/02 11:36:44;;;;;;;1.67;0.75;;;;;;;28.54;32.53;101990.38;5003202;28;20259;-73
2022/09/02 11:39:52;;;;;;;1.92;0.98;;;;;;;28.45;33.06;101990.72;5000473;28;20624;-73
2022/09/02 11:42:48;;;;;;;0.80;0.80;;;;;;;27.53;33.90;101991.19;4997213;28;20285;-73